Time;durP1;ratioP1;P1;durP2;ratioP2;P2;SDS_P1;SDS_P2;PMS_P1;PMS_P2;Temp;Humidity;BMP_temperature;BMP_pressure;BME280_temperature;BME280_humidity;BME280_pressure;Samples;Min_cycle;Max_cycle;Signal;HPM_P1;HPM_P2
2022/09/06 00:01:15;;;;;;;;;14.67;13.67;;;;;16.35;84.51;100151.31;6312421;20;3536704;-51
2022/09/06 00:03:45;;;;;;;;;12.33;12.33;;;;;16.49;83.47;100155.63;6282998;20;3529546;-52
2022/09/06 00:06:18;;;;;;;;;11.33;11.33;;;;;16.43;84.11;100148.84;6314936;20;3507775;-50
2022/09/06 00:08:48;;;;;;;;;14.67;13.33;;;;;16.20;84.48;100156.06;6313278;20;3527361;-48
2022/09/06 00:11:17;;;;;;;;;13.50;13.50;;;;;16.07;85.38;100151.72;6289344;20;2490401;-50
2022/09/06 00:13:46;;;;;;;;;13.50;13.50;;;;;15.99;86.51;100157.72;6286140;20;2804516;-52
2022/09/06 00:16:22;;;;;;;;;15.50;15.50;;;;;15.88;86.21;100155.84;6284062;20;2496131;-51
2022/09/06 00:18:54;;;;;;;;;17.00;15.00;;;;;15.63;87.46;100155.94;6281117;20;2483698;-54
2022/09/06 00:21:28;;;;;;;;;17.50;16.00;;;;;15.68;87.38;100148.31;6284488;20;2831514;-53
2022/09/06 00:23:57;;;;;;;;;16.00;16.00;;;;;15.54;87.21;100146.66;6281651;20;3563005;-51
2022/09/06 00:26:26;;;;;;;;;13.00;13.00;;;;;15.63;87.48;100145.97;6284883;20;3530526;-51
2022/09/06 00:28:53;;;;;;;;;15.00;15.00;;;;;15.71;87.61;100157.09;6312584;20;2483716;-51
2022/09/06 00:31:25;;;;;;;;;16.00;16.00;;;;;15.56;87.67;100150.97;6277817;20;2491929;-50
2022/09/06 00:33:54;;;;;;;;;14.67;14.67;;;;;15.43;88.25;100147.47;6283412;20;3535666;-52
2022/09/06 00:36:22;;;;;;;;;16.00;14.00;;;;;15.37;88.34;100147.91;6286227;20;2491938;-52
2022/09/06 00:38:50;;;;;;;;;18.00;17.00;;;;;15.38;88.79;100146.94;6281646;20;2483598;-47
2022/09/06 00:41:19;;;;;;;;;19.33;15.33;;;;;15.42;88.08;100145.72;6280909;20;3554398;-50
2022/09/06 00:43:47;;;;;;;;;18.00;16.00;;;;;15.31;88.97;100146.53;6282730;20;2489847;-53
2022/09/06 00:46:25;;;;;;;;;16.00;16.00;;;;;15.26;89.07;100143.28;6284099;20;3561756;-49
2022/09/06 00:49:31;;;;;;;;;16.67;16.33;;;;;15.24;89.27;100141.66;6282614;20;3561849;-52
2022/09/06 00:52:19;;;;;;;;;14.50;13.50;;;;;15.14;89.84;100144.22;6279487;20;2500371;-52
2022/09/06 00:54:49;;;;;;;;;16.33;15.00;;;;;15.17;90.27;100143.13;6281370;20;3545058;-51
2022/09/06 00:57:19;;;;;;;;;17.67;15.67;;;;;15.32;90.36;100141.97;6282568;20;3558639;-52
2022/09/06 00:59:47;;;;;;;;;15.50;15.50;;;;;15.26;89.97;100142.44;6283278;20;2492037;-53
2022/09/06 01:02:15;;;;;;;;;20.00;15.00;;;;;15.07;90.64;100141.06;6283621;20;2487819;-50
2022/09/06 01:04:47;;;;;;;;;19.00;18.00;;;;;15.11;90.97;100139.88;6281089;20;2491926;-50
2022/09/06 01:08:07;;;;;;;;;17.00;17.00;;;;;15.03;90.96;100134.16;6281017;20;2829471;-50
2022/09/06 01:11:03;;;;;;;;;15.67;14.00;;;;;15.20;90.33;100132.06;6283946;20;3544000;-54
2022/09/06 01:14:03;;;;;;;;;18.67;16.00;;;;;15.03;90.50;100136.84;6282607;20;2828386;-46
2022/09/06 01:17:20;;;;;;;;;16.33;15.33;;;;;15.14;90.13;100133.38;6314011;20;3547116;-47
2022/09/06 01:20:30;;;;;;;;;15.00;15.00;;;;;15.43;88.79;100133.03;6279500;20;2491945;-49
2022/09/06 01:23:56;;;;;;;;;13.00;13.00;;;;;15.29;88.61;100136.78;6287152;20;2796317;-51
2022/09/06 01:27:27;;;;;;;;;14.33;13.33;;;;;14.91;90.53;100137.75;6280628;20;3535748;-49
2022/09/06 01:30:08;;;;;;;;;16.00;16.00;;;;;14.62;91.19;100129.91;6283250;20;2827488;-48
2022/09/06 01:32:55;;;;;;;;;17.33;16.00;;;;;14.69;91.25;100131.22;6311766;20;3552400;-48
2022/09/06 01:36:12;;;;;;;;;15.00;15.00;;;;;14.70;91.53;100138.31;6280116;20;3537751;-49
2022/09/06 01:38:40;;;;;;;;;18.50;18.00;;;;;14.53;91.88;100132.38;6272804;20;2496118;-50
2022/09/06 01:41:10;;;;;;;;;17.33;16.00;;;;;14.62;92.18;100134.44;6279037;20;3565005;-51
2022/09/06 01:43:46;;;;;;;;;17.33;15.00;;;;;14.65;92.02;100137.78;6283916;20;3552305;-51
2022/09/06 01:46:40;;;;;;;;;14.67;12.67;;;;;14.68;92.07;100131.31;6281516;20;3531511;-51
2022/09/06 01:49:36;;;;;;;;;22.00;19.00;;;;;14.69;92.30;100133.00;6273666;20;2492074;-48
2022/09/06 01:52:33;;;;;;;;;17.00;17.00;;;;;14.63;92.91;100128.06;6277804;20;2483603;-52
2022/09/06 01:55:27;;;;;;;;;17.00;16.50;;;;;14.64;92.62;100130.66;6279382;20;2488198;-46
2022/09/06 01:58:38;;;;;;;;;16.00;14.67;;;;;14.89;91.67;100128.88;6276149;20;3546082;-50
2022/09/06 02:01:45;;;;;;;;;17.33;17.33;;;;;15.05;90.85;100134.91;6278331;20;3565884;-60
2022/09/06 02:04:54;;;;;;;;;17.00;17.00;;;;;14.69;91.38;100127.59;6276370;20;2483615;-61
2022/09/06 02:07:28;;;;;;;;;18.00;18.00;;;;;14.61;92.16;100125.50;6278745;20;2824301;-61
2022/09/06 02:10:31;;;;;;;;;15.67;14.67;;;;;14.50;92.77;100128.03;6280473;20;3542004;-61
2022/09/06 02:13:01;;;;;;;;;14.67;14.67;;;;;14.54;92.32;100124.19;6279900;20;3532909;-61
2022/09/06 02:15:40;;;;;;;;;14.00;14.00;;;;;14.56;92.51;100122.25;6277718;20;3539803;-61
2022/09/06 02:18:23;;;;;;;;;14.00;14.00;;;;;14.81;90.61;100123.19;6282715;20;2799262;-61
2022/09/06 02:20:57;;;;;;;;;17.00;17.00;;;;;14.85;89.22;100127.38;6278092;20;2829428;-61
2022/09/06 02:23:32;;;;;;;;;14.50;14.50;;;;;14.61;90.66;100132.69;6283263;20;2805450;-61
2022/09/06 02:26:27;;;;;;;;;19.00;16.00;;;;;14.70;89.89;100130.22;6277568;20;3549212;-60
2022/09/06 02:28:56;;;;;;;;;17.33;17.00;;;;;14.90;88.22;100136.00;6276812;20;3568984;-61
2022/09/06 02:31:33;;;;;;;;;15.33;15.33;;;;;14.71;89.47;100131.06;6279618;20;3550362;-60
2022/09/06 02:34:02;;;;;;;;;14.50;14.50;;;;;14.53;89.48;100138.66;6309588;20;2491959;-60
2022/09/06 02:36:34;;;;;;;;;17.00;15.50;;;;;14.25;90.93;100137.00;6280020;20;2822141;-61
2022/09/06 02:39:04;;;;;;;;;15.00;15.00;;;;;14.70;88.96;100130.22;6280001;20;3527316;-60
2022/09/06 02:41:33;;;;;;;;;14.00;14.00;;;;;14.82;88.24;100135.72;6277793;20;3532564;-60
2022/09/06 02:44:02;;;;;;;;;17.33;16.67;;;;;14.50;89.34;100133.44;6309693;20;3554407;-60
2022/09/06 02:46:30;;;;;;;;;18.00;14.50;;;;;14.47;89.75;100131.81;6280664;20;2812765;-61
2022/09/06 02:48:59;;;;;;;;;16.67;15.33;;;;;14.63;89.27;100130.75;6276300;20;3560695;-60
2022/09/06 02:51:27;;;;;;;;;17.33;15.00;;;;;14.39;89.94;100127.94;6276490;20;3543001;-61
2022/09/06 02:53:56;;;;;;;;;17.00;16.00;;;;;14.35;90.14;100135.41;6276515;20;3555569;-61
2022/09/06 02:56:25;;;;;;;;;16.00;15.00;;;;;14.38;90.43;100128.91;6280108;20;3541943;-60
2022/09/06 02:58:54;;;;;;;;;17.50;17.50;;;;;14.31;90.79;100133.00;6277406;20;2832567;-61
2022/09/06 03:01:23;;;;;;;;;17.00;16.00;;;;;14.30;90.77;100125.84;6279718;20;3562710;-60
2022/09/06 03:03:51;;;;;;;;;15.00;14.33;;;;;14.26;90.05;100128.78;6279388;20;3532617;-60
2022/09/06 03:06:20;;;;;;;;;16.67;14.33;;;;;14.20;90.48;100121.13;6275414;20;3544113;-60
2022/09/06 03:08:50;;;;;;;;;16.33;16.33;;;;;14.20;91.00;100121.13;6277414;20;3558590;-60
2022/09/06 03:11:18;;;;;;;;;15.67;15.67;;;;;14.25;90.24;100116.25;6281761;20;3543999;-60
2022/09/06 03:13:49;;;;;;;;;14.67;14.67;;;;;14.23;91.32;100120.91;6282014;20;3542070;-60
2022/09/06 03:16:19;;;;;;;;;18.00;17.00;;;;;14.43;90.98;100116.81;6276356;20;2835809;-60
2022/09/06 03:18:48;;;;;;;;;18.00;17.00;;;;;14.68;90.29;100120.50;6277511;20;3564870;-60
2022/09/06 03:21:17;;;;;;;;;15.00;15.00;;;;;14.77;89.52;100124.34;6280013;20;3528392;-60
2022/09/06 03:23:45;;;;;;;;;15.33;15.33;;;;;14.47;90.48;100120.16;6313603;20;2812776;-60
2022/09/06 03:26:14;;;;;;;;;15.00;15.00;;;;;14.49;91.05;100121.78;6308584;20;2802443;-60
2022/09/06 03:28:43;;;;;;;;;18.00;15.67;;;;;14.50;90.56;100122.63;6278309;20;3558556;-60
2022/09/06 03:31:12;;;;;;;;;17.00;17.00;;;;;14.64;90.04;100119.84;6286695;20;2829439;-60
2022/09/06 03:33:40;;;;;;;;;18.00;18.00;;;;;14.98;87.46;100128.25;6285432;20;2829467;-60
2022/09/06 03:36:09;;;;;;;;;18.33;17.67;;;;;14.61;88.69;100132.69;6316274;20;3575250;-60
2022/09/06 03:38:37;;;;;;;;;14.67;14.67;;;;;14.54;89.18;100126.88;6283808;20;3531561;-60
2022/09/06 03:41:06;;;;;;;;;13.00;13.00;;;;;14.68;88.02;100128.59;6313494;20;3524537;-60
2022/09/06 03:43:35;;;;;;;;;16.67;16.67;;;;;14.81;87.38;100126.75;6282481;20;3556479;-60
2022/09/06 03:46:04;;;;;;;;;17.00;16.00;;;;;14.80;87.32;100133.13;6285413;20;3558601;-59
2022/09/06 03:48:33;;;;;;;;;18.00;15.33;;;;;14.78;87.50;100132.38;6285832;20;2823295;-60
2022/09/06 03:51:01;;;;;;;;;15.33;15.33;;;;;14.95;86.93;100136.53;6315096;20;3537841;-61
2022/09/06 03:53:30;;;;;;;;;16.00;14.00;;;;;15.11;86.82;100145.28;6280503;20;3541910;-60
2022/09/06 03:55:59;;;;;;;;;14.67;14.67;;;;;15.12;85.50;100138.91;6314936;20;3536738;-60
2022/09/06 03:58:32;;;;;;;;;16.00;14.67;;;;;15.01;86.78;100136.13;6283222;20;2816956;-60
2022/09/06 04:01:10;;;;;;;;;16.00;16.00;;;;;14.86;87.57;100132.69;6310434;20;3560682;-60
2022/09/06 04:03:40;;;;;;;;;16.50;16.50;;;;;15.02;87.61;100132.44;6284976;20;2833588;-60
2022/09/06 04:06:09;;;;;;;;;18.67;16.33;;;;;15.02;86.80;100128.88;6282971;20;3555481;-60
2022/09/06 04:08:39;;;;;;;;;14.33;14.33;;;;;15.03;86.67;100123.31;6281769;20;3534653;-60
2022/09/06 04:11:07;;;;;;;;;18.00;14.00;;;;;15.15;85.40;100127.84;6307853;20;2819204;-59
2022/09/06 04:13:36;;;;;;;;;13.67;12.33;;;;;15.43;85.92;100128.53;6311446;20;3530572;-60
2022/09/06 04:16:06;;;;;;;;;14.00;14.00;;;;;15.56;84.80;100133.84;6283765;20;3539971;-56
2022/09/06 04:18:35;;;;;;;;;14.33;14.33;;;;;15.63;82.98;100137.84;6282865;20;3535647;-53
2022/09/06 04:21:03;;;;;;;;;17.00;17.00;;;;;15.44;84.76;100141.06;6280563;20;2492086;-54
2022/09/06 04:23:31;;;;;;;;;15.50;14.00;;;;;15.51;84.95;100131.50;6285435;20;2804494;-53
2022/09/06 04:26:05;;;;;;;;;15.50;13.00;;;;;15.35;87.54;100133.66;6280974;20;2487797;-55
2022/09/06 04:28:33;;;;;;;;;15.00;15.00;;;;;15.33;88.07;100127.47;6286789;20;2805648;-58
2022/09/06 04:31:03;;;;;;;;;15.50;14.50;;;;;15.44;87.06;100130.25;6284212;20;2491978;-55
2022/09/06 04:33:35;;;;;;;;;15.33;15.33;;;;;15.57;83.87;100131.03;6282772;20;3550248;-55
2022/09/06 04:36:08;;;;;;;;;18.50;16.00;;;;;15.62;83.76;100124.44;6283095;20;2491935;-56
2022/09/06 04:38:43;;;;;;;;;16.67;15.33;;;;;15.47;85.34;100124.59;6282473;20;3545168;-56
2022/09/06 04:41:17;;;;;;;;;20.00;16.50;;;;;15.45;86.14;100125.69;6277599;20;2483618;-54
2022/09/06 04:43:46;;;;;;;;;17.00;16.00;;;;;15.69;85.29;100133.84;6281171;20;3565857;-56
2022/09/06 04:46:26;;;;;;;;;18.00;15.00;;;;;15.60;83.18;100135.38;6283430;20;3537724;-55
2022/09/06 04:48:56;;;;;;;;;16.33;15.00;;;;;15.89;83.76;100141.31;6277643;20;3543312;-54
2022/09/06 04:51:25;;;;;;;;;20.50;15.50;;;;;15.93;82.41;100137.41;6313746;20;2831552;-53
2022/09/06 04:53:53;;;;;;;;;13.00;13.00;;;;;15.99;81.63;100138.75;6287705;20;2800257;-54
2022/09/06 04:56:25;;;;;;;;;15.33;15.33;;;;;15.98;81.81;100143.31;6313188;20;3538788;-51
2022/09/06 04:58:55;;;;;;;;;15.00;13.00;;;;;16.13;79.96;100143.13;6279714;20;2485942;-52
2022/09/06 05:01:25;;;;;;;;;14.00;14.00;;;;;16.07;81.27;100139.03;6284001;20;2810665;-51
2022/09/06 05:03:53;;;;;;;;;18.00;16.00;;;;;16.04;83.37;100135.72;6282303;20;2489881;-56
2022/09/06 05:06:24;;;;;;;;;14.00;14.00;;;;;15.80;84.80;100136.59;6283205;20;2496099;-53
2022/09/06 05:08:53;;;;;;;;;15.00;15.00;;;;;15.85;84.26;100129.00;6278720;20;3552323;-55
2022/09/06 05:11:22;;;;;;;;;18.00;17.00;;;;;15.91;83.08;100139.34;6281114;20;2833578;-52
2022/09/06 05:13:50;;;;;;;;;13.33;13.33;;;;;16.02;80.31;100139.38;6280032;20;3531577;-52
2022/09/06 05:16:19;;;;;;;;;16.33;14.00;;;;;16.31;80.04;100130.84;6314761;20;3524462;-61
2022/09/06 05:18:48;;;;;;;;;16.50;15.50;;;;;16.30;78.66;100136.38;6311946;20;2821165;-61
2022/09/06 05:21:16;;;;;;;;;15.00;15.00;;;;;16.30;77.46;100134.53;6281881;20;3540985;-54
2022/09/06 05:23:45;;;;;;;;;15.50;15.50;;;;;16.29;76.77;100149.06;6280079;20;2810879;-55
2022/09/06 05:26:14;;;;;;;;;16.50;15.00;;;;;16.44;75.84;100136.16;6279790;20;2823335;-56
2022/09/06 05:28:42;;;;;;;;;18.00;15.50;;;;;16.37;75.97;100134.91;6278563;20;2487816;-54
2022/09/06 05:31:29;;;;;;;;;;;;;;;16.44;77.02;100145.16;6170426;20;13980295;-58
2022/09/06 05:33:58;;;;;;;;;19.00;17.67;;;;;16.47;75.98;100141.34;6313837;20;3559706;-56
2022/09/06 05:36:29;;;;;;;;;19.00;16.00;;;;;16.50;76.01;100134.81;6312837;20;2832570;-57
2022/09/06 05:38:58;;;;;;;;;16.50;16.50;;;;;16.67;75.25;100145.19;6279661;20;2825297;-54
2022/09/06 05:41:27;;;;;;;;;25.50;20.00;;;;;16.55;75.27;100143.44;6283122;20;2833594;-57
2022/09/06 05:43:56;;;;;;;;;15.33;15.33;;;;;16.77;74.46;100148.94;6280854;20;3551896;-53
2022/09/06 05:46:25;;;;;;;;;16.50;16.50;;;;;17.23;72.36;100150.63;6280539;20;2491914;-57
2022/09/06 05:49:06;;;;;;;;;14.00;13.00;;;;;17.30;72.21;100146.41;6280252;20;2491963;-56
2022/09/06 05:51:35;;;;;;;;;19.00;16.00;;;;;17.32;70.68;100147.16;6279412;20;2827346;-57
2022/09/06 05:54:04;;;;;;;;;16.67;14.00;;;;;17.77;69.74;100138.88;6283761;20;3544090;-55
2022/09/06 05:56:32;;;;;;;;;15.00;15.00;;;;;18.23;67.00;100138.69;6281563;20;3536672;-55
2022/09/06 05:59:00;;;;;;;;;17.50;15.00;;;;;18.53;65.56;100141.44;6313879;20;2810803;-57
2022/09/06 06:01:30;;;;;;;;;15.67;14.33;;;;;19.73;62.32;100141.63;6276760;20;3524326;-56
2022/09/06 06:04:02;;;;;;;;;11.67;11.67;;;;;21.12;56.18;100149.28;6281355;20;3533752;-55
2022/09/06 06:06:33;;;;;;;;;14.50;14.50;;;;;21.23;55.78;100154.53;6282244;20;2806498;-54
2022/09/06 06:09:02;;;;;;;;;15.00;14.00;;;;;20.62;57.42;100149.63;6281109;20;3536180;-56
2022/09/06 06:11:31;;;;;;;;;14.33;14.33;;;;;19.00;63.15;100139.13;6315290;20;3539869;-52
2022/09/06 06:13:59;;;;;;;;;17.00;16.00;;;;;18.66;64.45;100141.22;6313120;20;2483628;-57
2022/09/06 06:16:28;;;;;;;;;14.67;14.67;;;;;18.71;63.80;100143.56;6282409;20;3530520;-55
2022/09/06 06:18:57;;;;;;;;;16.00;13.00;;;;;19.15;63.46;100136.91;6280049;20;2808607;-52
2022/09/06 06:21:29;;;;;;;;;18.00;16.00;;;;;20.46;59.72;100149.31;6279296;20;2833618;-52
2022/09/06 06:24:03;;;;;;;;;15.50;15.00;;;;;19.59;60.41;100150.16;6283132;20;2489934;-56
2022/09/06 06:26:35;;;;;;;;;15.33;15.33;;;;;19.55;59.93;100144.16;6279612;20;3544066;-51
2022/09/06 06:29:08;;;;;;;;;14.50;14.50;;;;;19.34;62.11;100135.22;6278668;20;2491935;-57
2022/09/06 06:31:38;;;;;;;;;13.00;13.00;;;;;20.27;59.82;100144.75;6282846;20;2483600;-54
2022/09/06 06:34:07;;;;;;;;;15.00;15.00;;;;;25.65;45.18;100160.00;6282119;20;2483585;-53
2022/09/06 06:36:37;;;;;;;;;12.33;12.33;;;;;26.58;42.23;100172.78;6282184;20;3528465;-58
2022/09/06 06:39:07;;;;;;;;;18.00;13.50;;;;;28.38;38.00;100184.25;6277914;20;2814839;-56
2022/09/06 06:41:36;;;;;;;;;14.33;14.33;;;;;28.39;37.66;100186.00;6280564;20;3536740;-57
2022/09/06 06:44:05;;;;;;;;;15.33;14.00;;;;;25.44;42.42;100175.22;6284121;20;2483717;-57
2022/09/06 06:46:37;;;;;;;;;14.67;14.67;;;;;21.86;50.88;100166.56;6311839;20;3534671;-55
2022/09/06 06:49:05;;;;;;;;;15.67;15.67;;;;;20.78;54.26;100168.94;6310903;20;2485767;-56
2022/09/06 06:51:36;;;;;;;;;14.33;13.00;;;;;20.92;54.50;100169.47;6313400;20;3523344;-56
2022/09/06 06:54:05;;;;;;;;;11.67;10.00;;;;;21.25;54.09;100168.06;6313175;20;3513245;-53
2022/09/06 06:56:39;;;;;;;;;13.67;13.67;;;;;21.11;54.50;100174.84;6310494;20;3533548;-52
2022/09/06 06:59:08;;;;;;;;;16.00;15.00;;;;;20.83;54.79;100174.81;6310263;20;3540977;-54
2022/09/06 07:01:37;;;;;;;;;14.67;14.67;;;;;21.56;53.43;100170.47;6313690;20;3543997;-53
2022/09/06 07:04:08;;;;;;;;;16.00;15.00;;;;;21.67;52.46;100165.69;6311447;20;3554406;-56
2022/09/06 07:06:55;;;;;;;;;16.33;14.33;;;;;21.66;52.88;100166.66;6310905;20;2489858;-52
2022/09/06 07:09:43;;;;;;;;;14.00;14.00;;;;;21.54;53.01;100172.50;6310212;20;2483666;-55
2022/09/06 07:12:32;;;;;;;;;12.33;12.00;;;;;21.72;53.64;100175.25;6310471;20;2483595;-51
2022/09/06 07:15:00;;;;;;;;;16.33;14.33;;;;;21.94;52.27;100174.84;6311359;20;3541926;-51
2022/09/06 07:17:29;;;;;;;;;15.67;14.33;;;;;21.74;52.33;100178.72;6277904;20;3544111;-55
2022/09/06 07:19:58;;;;;;;;;17.00;15.00;;;;;22.37;51.18;100175.91;6279059;20;2816913;-53
2022/09/06 07:22:42;;;;;;;;;13.67;12.67;;;;;24.50;46.82;100185.03;6278918;20;2491921;-54
2022/09/06 07:25:14;;;;;;;;;12.67;12.00;;;;;23.05;47.75;100179.84;6309927;20;3522250;-51
2022/09/06 07:27:55;;;;;;;;;17.33;14.00;;;;;22.28;50.30;100179.63;6280480;20;2484237;-51
2022/09/06 07:30:24;;;;;;;;;15.33;14.67;;;;;22.20;50.64;100179.56;6313127;20;3539807;-52
2022/09/06 07:32:53;;;;;;;;;13.67;13.67;;;;;22.37;50.44;100181.41;6284922;20;3539848;-53
2022/09/06 07:35:21;;;;;;;;;14.00;11.67;;;;;22.48;50.42;100177.53;6287457;20;2790905;-52
2022/09/06 07:38:00;;;;;;;;;13.00;13.00;;;;;22.44;49.98;100173.44;6305925;20;2483753;-51
2022/09/06 07:40:30;;;;;;;;;10.00;10.00;;;;;22.39;50.59;100173.88;6312585;20;3522183;-52
2022/09/06 07:42:59;;;;;;;;;13.00;12.00;;;;;23.09;49.35;100176.63;6314349;20;2483842;-51
2022/09/06 07:45:27;;;;;;;;;13.00;11.33;;;;;23.00;49.57;100174.84;6315827;20;2483601;-53
2022/09/06 07:47:58;;;;;;;;;11.33;10.33;;;;;23.50;48.41;100178.66;6315893;20;2785723;-52
2022/09/06 07:50:30;;;;;;;;;12.00;12.00;;;;;23.33;48.55;100173.13;6314325;20;2483592;-55
2022/09/06 07:53:16;;;;;;;;;12.00;12.00;;;;;23.67;48.22;100178.56;6313727;20;3515873;-56
2022/09/06 07:56:00;;;;;;;;;8.67;8.67;;;;;23.50;48.44;100173.19;6322545;20;2745118;-56
2022/09/06 07:58:31;;;;;;;;;13.67;11.67;;;;;23.73;47.75;100179.78;6312077;20;3520016;-51
2022/09/06 08:01:29;;;;;;;;;13.33;13.33;;;;;23.84;48.31;100176.72;6281991;20;3531505;-55
2022/09/06 08:04:01;;;;;;;;;13.00;12.33;;;;;23.56;48.60;100175.25;6284861;20;2483590;-55
2022/09/06 08:06:34;;;;;;;;;10.00;10.00;;;;;24.14;48.43;100177.09;6311541;20;2790048;-49
2022/09/06 08:09:22;;;;;;;;;11.33;10.67;;;;;24.34;46.67;100177.63;6307817;20;3514978;-61
2022/09/06 08:11:51;;;;;;;;;10.67;10.67;;;;;24.45;46.55;100173.72;6312477;20;2489975;-52
2022/09/06 08:14:20;;;;;;;;;9.00;8.67;;;;;24.48;46.26;100170.63;6317464;20;2750302;-56
2022/09/06 08:16:49;;;;;;;;;10.67;10.67;;;;;24.90;46.36;100169.53;6322622;20;2483576;-59
2022/09/06 08:19:17;;;;;;;;;11.67;11.67;;;;;24.63;46.23;100166.16;6316768;20;3521083;-55
2022/09/06 08:21:46;;;;;;;;;11.00;11.00;;;;;25.16;45.66;100183.91;6323742;20;2792057;-56
2022/09/06 08:24:14;;;;;;;;;12.67;12.67;;;;;25.09;45.85;100182.91;6316045;20;3528408;-56
2022/09/06 08:26:43;;;;;;;;;11.33;9.67;;;;;24.86;46.21;100177.28;6286414;20;3507671;-54
2022/09/06 08:29:13;;;;;;;;;10.00;10.00;;;;;25.32;45.61;100179.38;6310931;20;3495124;-55
2022/09/06 08:31:43;;;;;;;;;10.67;10.67;;;;;25.29;45.75;100179.75;6317251;20;3507988;-55
2022/09/06 08:34:13;;;;;;;;;12.00;12.00;;;;;25.50;45.12;100177.25;6321800;20;3528380;-56
2022/09/06 08:36:44;;;;;;;;;9.00;8.67;;;;;25.65;45.61;100171.00;6319006;20;2745074;-53
2022/09/06 08:39:12;;;;;;;;;13.67;12.00;;;;;25.32;46.06;100168.41;6319145;20;2792988;-54
2022/09/06 08:42:04;;;;;;;;;10.33;9.33;;;;;25.46;45.23;100170.41;6317837;20;3486764;-49
2022/09/06 08:44:50;;;;;;;;;9.33;9.33;;;;;25.32;45.76;100163.75;6313645;20;3491906;-58
2022/09/06 08:47:23;;;;;;;;;11.00;11.00;;;;;25.85;45.67;100166.75;6320806;20;2792097;-53
2022/09/06 08:50:00;;;;;;;;;9.33;9.33;;;;;26.32;44.50;100153.88;6315095;20;3482566;-53
2022/09/06 08:52:51;;;;;;;;;9.67;9.00;;;;;25.82;45.00;100153.34;6313695;20;3474187;-52
2022/09/06 08:56:27;;;;;;;;;16.00;13.67;;;;;25.96;45.07;100148.97;6316740;20;2489868;-52
2022/09/06 08:59:06;;;;;;;;;9.67;9.67;;;;;26.13;44.50;100146.97;6311485;20;3497142;-52
2022/09/06 09:02:17;;;;;;;;;12.33;12.33;;;;;26.50;44.14;100157.13;6322097;20;3513758;-52
2022/09/06 09:05:00;;;;;;;;;10.00;8.00;;;;;26.34;44.67;100149.03;6314664;20;2757581;-50
2022/09/06 09:07:44;;;;;;;;;11.67;10.33;;;;;26.41;44.53;100152.72;6312892;20;3509825;-55
2022/09/06 09:10:33;;;;;;;;;13.00;13.00;;;;;26.81;43.51;100154.28;6282642;20;3531641;-53
2022/09/06 09:13:08;;;;;;;;;14.33;12.67;;;;;26.48;44.23;100157.31;6281687;20;3518016;-52
2022/09/06 09:15:36;;;;;;;;;13.67;12.00;;;;;26.04;45.35;100155.28;6287579;20;2795048;-57
2022/09/06 09:18:08;;;;;;;;;11.67;11.67;;;;;26.53;44.22;100144.94;6317048;20;3518997;-50
2022/09/06 09:20:38;;;;;;;;;11.33;11.33;;;;;25.71;45.98;100143.63;6285175;20;3513784;-53
2022/09/06 09:23:06;;;;;;;;;9.00;9.00;;;;;25.79;46.84;100154.56;6321495;20;2755570;-54
2022/09/06 09:25:38;;;;;;;;;9.00;9.00;;;;;26.25;45.38;100142.72;6322097;20;2753581;-49
2022/09/06 09:28:17;;;;;;;;;12.67;12.67;;;;;26.30;46.71;100144.94;6314053;20;3526384;-52
2022/09/06 09:30:54;;;;;;;;;12.00;12.00;;;;;26.63;44.74;100132.59;6288242;20;2483682;-53
2022/09/06 09:33:28;;;;;;;;;13.00;11.67;;;;;27.88;43.31;100140.00;6315181;20;3538827;-49
2022/09/06 09:36:12;;;;;;;;;11.33;11.00;;;;;27.53;42.88;100138.94;6290037;20;2789938;-52
2022/09/06 09:38:50;;;;;;;;;11.00;10.00;;;;;27.41;44.05;100135.84;6315244;20;3512751;-50
2022/09/06 09:41:37;;;;;;;;;12.67;12.00;;;;;26.73;45.04;100126.81;6268036;20;3532555;-50
2022/09/06 09:44:16;;;;;;;;;10.00;10.00;;;;;26.16;46.31;100130.09;6284766;20;3513765;-54
2022/09/06 09:46:45;;;;;;;;;10.67;10.67;;;;;26.77;44.71;100114.38;6276818;20;3513888;-55
2022/09/06 09:49:26;;;;;;;;;12.00;10.67;;;;;27.92;42.90;100122.03;6301082;20;3512792;-51
2022/09/06 09:52:13;;;;;;;;;10.33;10.33;;;;;27.71;43.36;100117.31;6318541;20;2789972;-53
2022/09/06 09:54:46;;;;;;;;;11.33;10.00;;;;;27.79;42.63;100108.91;6306516;20;2786996;-48
2022/09/06 09:57:18;;;;;;;;;11.00;11.00;;;;;28.25;42.32;100113.19;6303822;20;3526733;-50
2022/09/06 10:00:05;;;;;;;;;9.33;9.33;;;;;26.24;45.89;100099.72;6291340;20;2761741;-49
2022/09/06 10:02:38;;;;;;;;;6.00;6.00;;;;;25.89;47.40;100088.34;6312904;20;2740958;-49
2022/09/06 10:05:11;;;;;;;;;11.33;10.00;;;;;26.71;45.53;100082.06;6315105;20;2781598;-48
2022/09/06 10:07:53;;;;;;;;;12.33;11.00;;;;;27.34;44.94;100088.88;6300819;20;3513853;-52
2022/09/06 10:10:34;;;;;;;;;11.67;11.67;;;;;27.78;43.65;100081.53;6283855;20;2792159;-50
2022/09/06 10:13:18;;;;;;;;;9.33;9.33;;;;;27.14;44.52;100076.72;6312571;20;2755572;-53
2022/09/06 10:15:49;;;;;;;;;10.67;10.67;;;;;26.90;45.59;100077.88;6307236;20;3510800;-53
2022/09/06 10:18:42;;;;;;;;;10.67;10.67;;;;;27.74;43.76;100078.28;6297539;20;3519039;-53
2022/09/06 10:21:21;;;;;;;;;12.67;10.67;;;;;27.87;43.75;100085.03;6219374;20;2789086;-51
2022/09/06 10:24:30;;;;;;;;;13.33;10.67;;;;;27.70;43.75;100067.81;6263850;20;3516940;-52
2022/09/06 10:27:01;;;;;;;;;10.67;10.67;;;;;28.24;43.33;100068.16;6179772;20;2792153;-52
2022/09/06 10:30:05;;;;;;;;;10.67;10.67;;;;;27.51;44.85;100066.56;6315474;20;3502424;-48
2022/09/06 10:32:48;;;;;;;;;10.00;10.00;;;;;28.30;43.08;100065.63;6311470;20;3512837;-51
2022/09/06 10:35:36;;;;;;;;;10.00;9.33;;;;;28.12;43.65;100067.00;6311707;20;2782587;-50
2022/09/06 10:38:50;;;;;;;;;9.67;9.67;;;;;27.74;44.03;100056.19;6314161;20;2768162;-53
2022/09/06 10:41:55;;;;;;;;;13.00;10.00;;;;;28.08;43.90;100060.16;6305321;20;3508588;-52
2022/09/06 10:45:19;;;;;;;;;9.00;9.00;;;;;28.32;42.75;100061.63;6309066;20;2751465;-50
2022/09/06 10:48:22;;;;;;;;;9.00;9.00;;;;;28.43;42.87;100057.44;6306686;20;3469019;-54
2022/09/06 10:51:00;;;;;;;;;8.80;8.80;;;;;28.18;42.77;100054.31;6360481;20;1929449;-55
2022/09/06 10:54:08;;;;;;;;;10.00;10.00;;;;;28.83;41.96;100047.53;6318739;20;2789859;-57
2022/09/06 10:56:54;;;;;;;;;8.33;7.33;;;;;27.86;43.14;100052.94;6321944;20;2742035;-58
2022/09/06 10:59:40;;;;;;;;;12.33;10.33;;;;;28.66;42.82;100049.78;6308612;20;3509621;-59
2022/09/06 11:02:47;;;;;;;;;11.67;10.00;;;;;29.24;41.35;100056.91;6311361;20;2787858;-57
2022/09/06 11:05:39;;;;;;;;;11.00;9.67;;;;;28.43;42.58;100047.28;6309894;20;2483607;-58
2022/09/06 11:08:42;;;;;;;;;6.67;6.67;;;;;28.51;41.62;100048.19;6309867;20;2748637;-59
2022/09/06 11:12:13;;;;;;;;;8.00;8.00;;;;;28.96;41.13;100043.13;6313350;20;2738791;-59
2022/09/06 11:14:42;;;;;;;;;10.00;10.00;;;;;29.10;40.63;100040.25;6306961;20;3507627;-56
2022/09/06 11:17:46;;;;;;;;;10.33;8.67;;;;;29.82;40.53;100040.66;6315616;20;2774276;-57
2022/09/06 11:20:45;;;;;;;;;11.00;8.00;;;;;28.78;42.25;100038.13;6314190;20;3480422;-52
2022/09/06 11:23:49;;;;;;;;;8.00;8.00;;;;;28.61;42.02;100032.94;6318237;20;2753383;-55
2022/09/06 11:26:34;;;;;;;;;10.00;9.33;;;;;28.76;41.65;100026.44;6309615;20;2773257;-54
2022/09/06 11:29:26;;;;;;;;;9.67;9.67;;;;;28.74;41.39;100025.81;6312112;20;2764832;-50
2022/09/06 11:32:19;;;;;;;;;9.00;8.00;;;;;28.82;41.43;100018.19;6314382;20;2742037;-58
2022/09/06 11:34:56;;;;;;;;;9.67;9.67;;;;;28.16;43.18;100006.69;6318249;20;2780477;-59
2022/09/06 11:37:35;;;;;;;;;9.00;9.00;;;;;28.30;41.88;100013.16;6310799;20;3458623;-53
2022/09/06 11:40:24;;;;;;;;;8.00;8.00;;;;;28.42;42.15;100011.56;6311626;20;2754581;-56
2022/09/06 11:43:48;;;;;;;;;10.67;7.67;;;;;27.96;43.05;100006.53;6310822;20;3479419;-56